Overview Statistics Trail Chart Weather Telemetry Raw packets
 

This is the latest recevied weather packets stored in our database for station/object K4KMJ. If no packets are shown the sender has not sent any weather packets the latest 10 day(s).

<< 17 18 19 20 21 22 23 >>
Time Temp. Humidity Pressure Rain* Wind** Luminosity Snow
1788549790 32.78° C 75% 1016 hPa 0 mm - 223 W/m² -
1788549487 33.33° C 74% 1015.8 hPa 0 mm - 208 W/m² -
1788549183 33.33° C 73% 1016 hPa 0 mm - 322 W/m² -
1788548879 33.89° C 73% 1016.2 hPa 0 mm - 530 W/m² -
1788548575 33.89° C 72% 1016.2 hPa 0 mm - 176 W/m² -
1788548271 34.44° C 71% 1016.4 hPa 0 mm - 225 W/m² -
1788547966 34.44° C 71% 1016.5 hPa 0 mm - 663 W/m² -
1788547664 33.33° C 75% 1016.5 hPa 0 mm - 837 W/m² -
1788547361 33.33° C 74% 1016.4 hPa 0 mm - 866 W/m² -
1788547056 32.78° C 75% 1016.6 hPa 0 mm - 807 W/m² -
1788546751 32.78° C 75% 1016.8 hPa 0 mm - 272 W/m² -
1788546446 33.89° C 74% 1016.8 hPa 0 mm - 801 W/m² -
1788546163 33.33° C 74% 1017 hPa 0 mm - 276 W/m² -
1788545837 33.33° C 71% 1017 hPa 0 mm - 647 W/m² -
1788545536 33.89° C 73% 1017.3 hPa 0 mm - 719 W/m² -
1788545232 33.89° C 74% 1017.2 hPa 0 mm - 625 W/m² -
1788544927 33.89° C 72% 1017.3 hPa 0 mm - 636 W/m² -
1788544627 33.89° C 72% 1017.2 hPa 0 mm - 604 W/m² -
1788544325 33.89° C 73% 1017.4 hPa 0 mm - 652 W/m² -
1788544019 33.33° C 74% 1017.3 hPa 0 mm - 574 W/m² -
1788543715 32.78° C 76% 1017.4 hPa 0 mm - 546 W/m² -
1788543411 33.33° C 75% 1017.7 hPa 0 mm - 531 W/m² -
1788543106 32.78° C 76% 1017.6 hPa 0 mm - 508 W/m² -
1788542802 32.22° C 77% 1017.7 hPa 0 mm - 458 W/m² -
1788542501 32.22° C 77% 1017.6 hPa 0 mm - 453 W/m² -

* Rain latest hour (hover to see other rain measurements)
** Current wind speed in m/s (hover to see current wind gust speed)